sensor_id;sensor_type;location;lat;lon;timestamp;pressure;altitude;pressure_sealevel;temperature;humidity
17309;BME280;8772;42.804;23.426;2023-01-15T00:01:40;74671.38;;;-140.58;100.00
17309;BME280;8772;42.804;23.426;2023-01-15T00:04:10;74667.28;;;-140.58;100.00
17309;BME280;8772;42.804;23.426;2023-01-15T00:06:40;74665.22;;;-140.58;100.00
17309;BME280;8772;42.804;23.426;2023-01-15T00:09:09;74667.28;;;-140.58;100.00
17309;BME280;8772;42.804;23.426;2023-01-15T00:11:38;74659.06;;;-140.58;100.00
17309;BME280;8772;42.804;23.426;2023-01-15T00:14:05;74663.16;;;-140.58;100.00
17309;BME280;8772;42.804;23.426;2023-01-15T00:16:32;74675.47;;;-140.58;100.00
17309;BME280;8772;42.804;23.426;2023-01-15T00:19:00;74671.38;;;-140.58;100.00
17309;BME280;8772;42.804;23.426;2023-01-15T00:21:30;74675.47;;;-140.58;100.00
17309;BME280;8772;42.804;23.426;2023-01-15T00:23:57;74671.38;;;-140.58;100.00
17309;BME280;8772;42.804;23.426;2023-01-15T00:26:41;74675.47;;;-140.58;100.00
17309;BME280;8772;42.804;23.426;2023-01-15T00:29:26;74681.63;;;-140.58;100.00
17309;BME280;8772;42.804;23.426;2023-01-15T00:31:56;74683.69;;;-140.58;100.00
17309;BME280;8772;42.804;23.426;2023-01-15T00:34:24;74681.63;;;-140.58;100.00
17309;BME280;8772;42.804;23.426;2023-01-15T00:36:53;74679.59;;;-140.58;100.00
17309;BME280;8772;42.804;23.426;2023-01-15T00:39:21;74683.69;;;-140.58;100.00
17309;BME280;8772;42.804;23.426;2023-01-15T00:41:48;74687.78;;;-140.58;100.00
17309;BME280;8772;42.804;23.426;2023-01-15T00:44:16;74689.84;;;-140.58;100.00
17309;BME280;8772;42.804;23.426;2023-01-15T00:46:43;74685.72;;;-140.58;100.00
17309;BME280;8772;42.804;23.426;2023-01-15T00:49:10;74696.00;;;-140.58;100.00
17309;BME280;8772;42.804;23.426;2023-01-15T00:51:37;74700.09;;;-140.58;100.00
17309;BME280;8772;42.804;23.426;2023-01-15T00:54:05;74698.06;;;-140.58;100.00
17309;BME280;8772;42.804;23.426;2023-01-15T00:56:32;74702.16;;;-140.58;100.00
17309;BME280;8772;42.804;23.426;2023-01-15T00:59:00;74691.91;;;-140.58;100.00
17309;BME280;8772;42.804;23.426;2023-01-15T01:01:28;74698.06;;;-140.58;100.00
17309;BME280;8772;42.804;23.426;2023-01-15T01:07:16;74706.25;;;-140.58;100.00
17309;BME280;8772;42.804;23.426;2023-01-15T01:09:45;74700.09;;;-140.58;100.00
17309;BME280;8772;42.804;23.426;2023-01-15T01:12:12;74700.09;;;-140.58;100.00
17309;BME280;8772;42.804;23.426;2023-01-15T01:14:39;74710.38;;;-140.58;100.00
17309;BME280;8772;42.804;23.426;2023-01-15T01:17:05;74710.38;;;-140.58;100.00
17309;BME280;8772;42.804;23.426;2023-01-15T01:19:32;74710.38;;;-140.58;100.00
17309;BME280;8772;42.804;23.426;2023-01-15T01:21:59;74712.41;;;-140.58;100.00
17309;BME280;8772;42.804;23.426;2023-01-15T01:24:26;74708.31;;;-140.58;100.00
17309;BME280;8772;42.804;23.426;2023-01-15T01:26:54;74706.25;;;-140.58;100.00
17309;BME280;8772;42.804;23.426;2023-01-15T01:29:22;74700.09;;;-140.58;100.00
17309;BME280;8772;42.804;23.426;2023-01-15T01:31:49;74724.72;;;-140.58;100.00
17309;BME280;8772;42.804;23.426;2023-01-15T01:34:16;74751.41;;;-140.58;100.00
17309;BME280;8772;42.804;23.426;2023-01-15T01:36:43;74730.88;;;-140.58;100.00
17309;BME280;8772;42.804;23.426;2023-01-15T01:39:12;74724.72;;;-140.58;100.00
17309;BME280;8772;42.804;23.426;2023-01-15T01:41:39;74722.66;;;-140.58;100.00
17309;BME280;8772;42.804;23.426;2023-01-15T01:47:09;74720.63;;;-140.58;100.00
17309;BME280;8772;42.804;23.426;2023-01-15T01:49:40;74712.41;;;-140.58;100.00
17309;BME280;8772;42.804;23.426;2023-01-15T01:52:12;74720.63;;;-140.58;100.00
17309;BME280;8772;42.804;23.426;2023-01-15T01:54:41;74712.41;;;-140.58;100.00
17309;BME280;8772;42.804;23.426;2023-01-15T01:57:10;74716.50;;;-140.58;100.00
17309;BME280;8772;42.804;23.426;2023-01-15T01:59:38;74716.50;;;-140.58;100.00
17309;BME280;8772;42.804;23.426;2023-01-15T02:02:05;74710.38;;;-140.58;100.00
17309;BME280;8772;42.804;23.426;2023-01-15T02:04:35;74700.09;;;-140.58;100.00
17309;BME280;8772;42.804;23.426;2023-01-15T02:07:03;74700.09;;;-140.58;100.00
17309;BME280;8772;42.804;23.426;2023-01-15T02:09:30;74698.06;;;-140.58;100.00
17309;BME280;8772;42.804;23.426;2023-01-15T02:12:01;74691.91;;;-140.58;100.00
17309;BME280;8772;42.804;23.426;2023-01-15T02:14:35;74693.94;;;-140.58;100.00
17309;BME280;8772;42.804;23.426;2023-01-15T02:17:09;74696.00;;;-140.58;100.00
17309;BME280;8772;42.804;23.426;2023-01-15T02:19:49;74700.09;;;-140.58;100.00
17309;BME280;8772;42.804;23.426;2023-01-15T02:22:25;74698.06;;;-140.58;100.00
17309;BME280;8772;42.804;23.426;2023-01-15T02:25:03;74693.94;;;-140.58;100.00
17309;BME280;8772;42.804;23.426;2023-01-15T02:27:36;74700.09;;;-140.58;100.00
17309;BME280;8772;42.804;23.426;2023-01-15T02:30:06;74698.06;;;-140.58;100.00
17309;BME280;8772;42.804;23.426;2023-01-15T02:32:39;74700.09;;;-140.58;100.00
17309;BME280;8772;42.804;23.426;2023-01-15T02:35:11;74696.00;;;-140.58;100.00
17309;BME280;8772;42.804;23.426;2023-01-15T02:37:42;74691.91;;;-140.58;100.00
17309;BME280;8772;42.804;23.426;2023-01-15T02:40:11;74687.78;;;-140.58;100.00
17309;BME280;8772;42.804;23.426;2023-01-15T02:42:42;74691.91;;;-140.58;100.00
17309;BME280;8772;42.804;23.426;2023-01-15T02:45:14;74704.19;;;-140.58;100.00
17309;BME280;8772;42.804;23.426;2023-01-15T02:47:42;74700.09;;;-140.58;100.00
17309;BME280;8772;42.804;23.426;2023-01-15T02:50:14;74698.06;;;-140.58;100.00
17309;BME280;8772;42.804;23.426;2023-01-15T02:52:45;74698.06;;;-140.58;100.00
17309;BME280;8772;42.804;23.426;2023-01-15T02:55:15;74696.00;;;-140.58;100.00
17309;BME280;8772;42.804;23.426;2023-01-15T02:57:46;74704.19;;;-140.58;100.00
17309;BME280;8772;42.804;23.426;2023-01-15T03:00:16;74696.00;;;-140.58;100.00
17309;BME280;8772;42.804;23.426;2023-01-15T03:02:48;74716.50;;;-140.58;100.00
17309;BME280;8772;42.804;23.426;2023-01-15T03:05:21;74716.50;;;-140.58;100.00
17309;BME280;8772;42.804;23.426;2023-01-15T03:07:51;74704.19;;;-140.58;100.00
17309;BME280;8772;42.804;23.426;2023-01-15T03:10:28;74708.31;;;-140.58;100.00
17309;BME280;8772;42.804;23.426;2023-01-15T03:13:00;74708.31;;;-140.58;100.00
17309;BME280;8772;42.804;23.426;2023-01-15T03:15:38;74722.66;;;-140.58;100.00
17309;BME280;8772;42.804;23.426;2023-01-15T03:18:27;74737.03;;;-140.58;100.00
17309;BME280;8772;42.804;23.426;2023-01-15T03:20:58;74732.94;;;-140.58;100.00
17309;BME280;8772;42.804;23.426;2023-01-15T03:23:28;74730.88;;;-140.58;100.00
17309;BME280;8772;42.804;23.426;2023-01-15T03:25:56;74728.81;;;-140.58;100.00
17309;BME280;8772;42.804;23.426;2023-01-15T03:28:26;74720.63;;;-140.58;100.00
17309;BME280;8772;42.804;23.426;2023-01-15T03:30:55;74712.41;;;-140.58;100.00
17309;BME280;8772;42.804;23.426;2023-01-15T03:33:21;74714.47;;;-140.58;100.00
17309;BME280;8772;42.804;23.426;2023-01-15T03:35:52;74708.31;;;-140.58;100.00
17309;BME280;8772;42.804;23.426;2023-01-15T03:38:24;74710.38;;;-140.58;100.00
17309;BME280;8772;42.804;23.426;2023-01-15T03:40:59;74706.25;;;-140.58;100.00
17309;BME280;8772;42.804;23.426;2023-01-15T03:43:36;74710.38;;;-140.58;100.00
17309;BME280;8772;42.804;23.426;2023-01-15T03:46:13;74704.19;;;-140.58;100.00
17309;BME280;8772;42.804;23.426;2023-01-15T03:48:48;74708.31;;;-140.58;100.00
17309;BME280;8772;42.804;23.426;2023-01-15T03:51:24;74704.19;;;-140.58;100.00
17309;BME280;8772;42.804;23.426;2023-01-15T03:53:56;74712.41;;;-140.58;100.00
17309;BME280;8772;42.804;23.426;2023-01-15T03:56:30;74704.19;;;-140.58;100.00
17309;BME280;8772;42.804;23.426;2023-01-15T03:59:03;74706.25;;;-140.58;100.00
17309;BME280;8772;42.804;23.426;2023-01-15T04:01:36;74708.31;;;-140.58;100.00
17309;BME280;8772;42.804;23.426;2023-01-15T04:04:04;74712.41;;;-140.58;100.00
17309;BME280;8772;42.804;23.426;2023-01-15T04:06:34;74708.31;;;-140.58;100.00
17309;BME280;8772;42.804;23.426;2023-01-15T04:09:03;74724.72;;;-140.58;100.00
17309;BME280;8772;42.804;23.426;2023-01-15T04:11:31;74716.50;;;-140.58;100.00
17309;BME280;8772;42.804;23.426;2023-01-15T04:14:00;74712.41;;;-140.58;100.00
17309;BME280;8772;42.804;23.426;2023-01-15T04:16:29;74712.41;;;-140.58;100.00
17309;BME280;8772;42.804;23.426;2023-01-15T04:18:57;74712.41;;;-140.58;100.00
17309;BME280;8772;42.804;23.426;2023-01-15T04:21:24;74712.41;;;-140.58;100.00
17309;BME280;8772;42.804;23.426;2023-01-15T04:23:51;74712.41;;;-140.58;100.00
17309;BME280;8772;42.804;23.426;2023-01-15T04:26:18;74712.41;;;-140.58;100.00
17309;BME280;8772;42.804;23.426;2023-01-15T04:28:45;74720.63;;;-140.58;100.00
17309;BME280;8772;42.804;23.426;2023-01-15T04:31:13;74724.72;;;-140.58;100.00
17309;BME280;8772;42.804;23.426;2023-01-15T04:33:40;74726.78;;;-140.58;100.00
17309;BME280;8772;42.804;23.426;2023-01-15T04:36:07;74741.13;;;-140.58;100.00
17309;BME280;8772;42.804;23.426;2023-01-15T04:38:35;74737.03;;;-140.58;100.00
17309;BME280;8772;42.804;23.426;2023-01-15T04:41:03;74741.13;;;-140.58;100.00
17309;BME280;8772;42.804;23.426;2023-01-15T04:43:47;74751.41;;;-140.58;100.00
17309;BME280;8772;42.804;23.426;2023-01-15T04:46:35;74749.34;;;-140.58;100.00
17309;BME280;8772;42.804;23.426;2023-01-15T04:49:03;74776.03;;;-140.58;100.00
17309;BME280;8772;42.804;23.426;2023-01-15T04:51:29;74782.19;;;-140.58;100.00
17309;BME280;8772;42.804;23.426;2023-01-15T04:53:56;74782.19;;;-140.58;100.00
17309;BME280;8772;42.804;23.426;2023-01-15T04:56:26;74796.53;;;-140.58;100.00
17309;BME280;8772;42.804;23.426;2023-01-15T04:58:52;74802.69;;;-140.58;100.00
17309;BME280;8772;42.804;23.426;2023-01-15T05:01:19;74815.00;;;-140.58;100.00
17309;BME280;8772;42.804;23.426;2023-01-15T05:03:47;74823.22;;;-140.58;100.00
17309;BME280;8772;42.804;23.426;2023-01-15T05:06:15;74847.84;;;-140.58;100.00
17309;BME280;8772;42.804;23.426;2023-01-15T05:08:43;74864.25;;;-140.58;100.00
17309;BME280;8772;42.804;23.426;2023-01-15T05:11:10;74864.25;;;-140.58;100.00
17309;BME280;8772;42.804;23.426;2023-01-15T05:13:37;74878.63;;;-140.58;100.00
17309;BME280;8772;42.804;23.426;2023-01-15T05:16:12;74878.63;;;-140.58;100.00
17309;BME280;8772;42.804;23.426;2023-01-15T05:18:40;74856.06;;;-140.58;100.00
17309;BME280;8772;42.804;23.426;2023-01-15T05:21:14;74874.53;;;-140.58;100.00
17309;BME280;8772;42.804;23.426;2023-01-15T05:23:42;74890.94;;;-140.58;100.00
17309;BME280;8772;42.804;23.426;2023-01-15T05:26:09;74886.84;;;-140.58;100.00
17309;BME280;8772;42.804;23.426;2023-01-15T05:28:36;74888.88;;;-140.58;100.00
17309;BME280;8772;42.804;23.426;2023-01-15T05:31:07;74888.88;;;-140.58;100.00
17309;BME280;8772;42.804;23.426;2023-01-15T05:33:35;74884.78;;;-140.58;100.00
17309;BME280;8772;42.804;23.426;2023-01-15T05:36:03;74880.69;;;-140.58;100.00
17309;BME280;8772;42.804;23.426;2023-01-15T05:38:32;74878.63;;;-140.58;100.00
17309;BME280;8772;42.804;23.426;2023-01-15T05:41:02;74870.41;;;-140.58;100.00
17309;BME280;8772;42.804;23.426;2023-01-15T05:43:49;74870.41;;;-140.58;100.00
17309;BME280;8772;42.804;23.426;2023-01-15T05:46:16;74860.16;;;-140.58;100.00
17309;BME280;8772;42.804;23.426;2023-01-15T05:48:43;74843.75;;;-140.58;100.00
17309;BME280;8772;42.804;23.426;2023-01-15T05:51:10;74839.63;;;-140.58;100.00
17309;BME280;8772;42.804;23.426;2023-01-15T05:53:39;74839.63;;;-140.58;100.00
17309;BME280;8772;42.804;23.426;2023-01-15T05:56:06;74833.47;;;-140.58;100.00
17309;BME280;8772;42.804;23.426;2023-01-15T05:58:33;74831.44;;;-140.58;100.00
17309;BME280;8772;42.804;23.426;2023-01-15T06:01:05;74821.16;;;-140.58;100.00
17309;BME280;8772;42.804;23.426;2023-01-15T06:03:32;74821.16;;;-140.58;100.00
17309;BME280;8772;42.804;23.426;2023-01-15T06:05:59;74825.28;;;-140.58;100.00
17309;BME280;8772;42.804;23.426;2023-01-15T06:08:26;74849.91;;;-140.58;100.00
17309;BME280;8772;42.804;23.426;2023-01-15T06:10:54;74835.53;;;-140.58;100.00
17309;BME280;8772;42.804;23.426;2023-01-15T06:13:22;74841.69;;;-140.58;100.00
17309;BME280;8772;42.804;23.426;2023-01-15T06:15:49;74843.75;;;-140.58;100.00
17309;BME280;8772;42.804;23.426;2023-01-15T06:18:15;74839.63;;;-140.58;100.00
17309;BME280;8772;42.804;23.426;2023-01-15T06:20:42;74815.00;;;-140.58;100.00
17309;BME280;8772;42.804;23.426;2023-01-15T06:23:09;74804.75;;;-140.58;100.00
17309;BME280;8772;42.804;23.426;2023-01-15T06:25:36;74802.69;;;-140.58;100.00
17309;BME280;8772;42.804;23.426;2023-01-15T06:28:06;74798.59;;;-140.58;100.00
17309;BME280;8772;42.804;23.426;2023-01-15T06:30:33;74786.28;;;-140.58;100.00
17309;BME280;8772;42.804;23.426;2023-01-15T06:33:00;74782.19;;;-140.58;100.00
17309;BME280;8772;42.804;23.426;2023-01-15T06:35:27;74765.75;;;-140.58;100.00
17309;BME280;8772;42.804;23.426;2023-01-15T06:37:54;74773.97;;;-140.58;100.00
17309;BME280;8772;42.804;23.426;2023-01-15T06:40:21;74763.72;;;-140.58;100.00
17309;BME280;8772;42.804;23.426;2023-01-15T06:42:50;74757.56;;;-140.58;100.00
17309;BME280;8772;42.804;23.426;2023-01-15T06:45:39;74757.56;;;-140.58;100.00
17309;BME280;8772;42.804;23.426;2023-01-15T06:48:25;74749.34;;;-140.58;100.00
17309;BME280;8772;42.804;23.426;2023-01-15T06:50:52;74737.03;;;-140.58;100.00
17309;BME280;8772;42.804;23.426;2023-01-15T06:53:19;74741.13;;;-140.58;100.00
17309;BME280;8772;42.804;23.426;2023-01-15T06:55:46;74732.94;;;-140.58;100.00
17309;BME280;8772;42.804;23.426;2023-01-15T06:58:13;74745.25;;;-140.58;100.00
17309;BME280;8772;42.804;23.426;2023-01-15T07:00:42;74745.25;;;-140.58;100.00
17309;BME280;8772;42.804;23.426;2023-01-15T07:03:10;74726.78;;;-140.58;100.00
17309;BME280;8772;42.804;23.426;2023-01-15T07:05:38;74728.81;;;-140.58;100.00
17309;BME280;8772;42.804;23.426;2023-01-15T07:08:05;74726.78;;;-140.58;100.00
17309;BME280;8772;42.804;23.426;2023-01-15T07:10:33;74728.81;;;-140.58;100.00
17309;BME280;8772;42.804;23.426;2023-01-15T07:13:00;74726.78;;;-140.58;100.00
17309;BME280;8772;42.804;23.426;2023-01-15T07:15:26;74704.19;;;-140.58;100.00
17309;BME280;8772;42.804;23.426;2023-01-15T07:17:55;74716.50;;;-140.58;100.00
17309;BME280;8772;42.804;23.426;2023-01-15T07:20:22;74710.38;;;-140.58;100.00
17309;BME280;8772;42.804;23.426;2023-01-15T07:22:50;74724.72;;;-140.58;100.00
17309;BME280;8772;42.804;23.426;2023-01-15T07:25:17;74710.38;;;-140.58;100.00
17309;BME280;8772;42.804;23.426;2023-01-15T07:27:45;74716.50;;;-140.58;100.00
17309;BME280;8772;42.804;23.426;2023-01-15T07:30:12;74700.09;;;-140.58;100.00
17309;BME280;8772;42.804;23.426;2023-01-15T07:32:39;74700.09;;;-140.58;100.00
17309;BME280;8772;42.804;23.426;2023-01-15T07:35:08;74683.69;;;-140.58;100.00
17309;BME280;8772;42.804;23.426;2023-01-15T07:37:35;74677.53;;;-140.58;100.00
17309;BME280;8772;42.804;23.426;2023-01-15T07:40:05;74673.44;;;-140.58;100.00
17309;BME280;8772;42.804;23.426;2023-01-15T07:42:32;74663.16;;;-140.58;100.00
17309;BME280;8772;42.804;23.426;2023-01-15T07:45:16;74654.97;;;-140.58;100.00
17309;BME280;8772;42.804;23.426;2023-01-15T07:48:00;74638.53;;;-140.58;100.00
17309;BME280;8772;42.804;23.426;2023-01-15T07:50:46;74630.34;;;-140.58;100.00
17309;BME280;8772;42.804;23.426;2023-01-15T07:53:13;74622.13;;;-140.58;100.00
17309;BME280;8772;42.804;23.426;2023-01-15T07:55:40;74609.81;;;-140.58;100.00
17309;BME280;8772;42.804;23.426;2023-01-15T07:58:07;74613.91;;;-140.58;100.00
17309;BME280;8772;42.804;23.426;2023-01-15T08:00:34;74591.34;;;-140.58;100.00
17309;BME280;8772;42.804;23.426;2023-01-15T08:03:02;74576.97;;;-140.58;100.00
17309;BME280;8772;42.804;23.426;2023-01-15T08:05:31;74568.78;;;-140.58;100.00
17309;BME280;8772;42.804;23.426;2023-01-15T08:07:59;74564.66;;;-140.58;100.00
17309;BME280;8772;42.804;23.426;2023-01-15T08:10:26;74556.47;;;-140.58;100.00
17309;BME280;8772;42.804;23.426;2023-01-15T08:12:53;74581.09;;;-140.58;100.00
17309;BME280;8772;42.804;23.426;2023-01-15T08:15:38;74568.78;;;-140.58;100.00
17309;BME280;8772;42.804;23.426;2023-01-15T08:18:08;74585.19;;;-140.58;100.00
17309;BME280;8772;42.804;23.426;2023-01-15T08:20:35;74589.28;;;-140.58;100.00
17309;BME280;8772;42.804;23.426;2023-01-15T08:23:03;74585.19;;;-140.58;100.00
17309;BME280;8772;42.804;23.426;2023-01-15T08:25:30;74585.19;;;-140.58;100.00
17309;BME280;8772;42.804;23.426;2023-01-15T08:27:59;74599.56;;;-140.58;100.00
17309;BME280;8772;42.804;23.426;2023-01-15T08:30:27;74622.13;;;-140.58;100.00
17309;BME280;8772;42.804;23.426;2023-01-15T08:32:58;74630.34;;;-140.58;100.00
17309;BME280;8772;42.804;23.426;2023-01-15T08:35:27;74622.13;;;-140.58;100.00
17309;BME280;8772;42.804;23.426;2023-01-15T08:37:54;74634.44;;;-140.58;100.00
17309;BME280;8772;42.804;23.426;2023-01-15T08:40:22;74638.53;;;-140.58;100.00
17309;BME280;8772;42.804;23.426;2023-01-15T08:42:49;74628.28;;;-140.58;100.00
17309;BME280;8772;42.804;23.426;2023-01-15T08:45:16;74611.88;;;-140.58;100.00
17309;BME280;8772;42.804;23.426;2023-01-15T08:47:43;74632.38;;;-140.58;100.00
17309;BME280;8772;42.804;23.426;2023-01-15T08:50:10;74618.03;;;-140.58;100.00
17309;BME280;8772;42.804;23.426;2023-01-15T08:52:37;74630.34;;;-140.58;100.00
17309;BME280;8772;42.804;23.426;2023-01-15T08:55:05;74613.91;;;-140.58;100.00
17309;BME280;8772;42.804;23.426;2023-01-15T08:57:34;74597.50;;;-140.58;100.00
17309;BME280;8772;42.804;23.426;2023-01-15T09:00:02;74581.09;;;-140.58;100.00
17309;BME280;8772;42.804;23.426;2023-01-15T09:02:29;74568.78;;;-140.58;100.00
17309;BME280;8772;42.804;23.426;2023-01-15T09:04:56;74558.53;;;-140.58;100.00
17309;BME280;8772;42.804;23.426;2023-01-15T09:07:23;74560.56;;;-140.58;100.00
17309;BME280;8772;42.804;23.426;2023-01-15T09:09:50;74540.06;;;-140.58;100.00
17309;BME280;8772;42.804;23.426;2023-01-15T09:12:16;74544.16;;;-140.58;100.00
17309;BME280;8772;42.804;23.426;2023-01-15T09:14:45;74538.00;;;-140.58;100.00
17309;BME280;8772;42.804;23.426;2023-01-15T09:17:11;74509.28;;;-140.58;100.00
17309;BME280;8772;42.804;23.426;2023-01-15T09:19:38;74523.63;;;-140.58;100.00
17309;BME280;8772;42.804;23.426;2023-01-15T09:22:05;74515.44;;;-140.58;100.00
17309;BME280;8772;42.804;23.426;2023-01-15T09:24:32;74496.97;;;-140.58;100.00
17309;BME280;8772;42.804;23.426;2023-01-15T09:26:59;74476.44;;;-140.58;100.00
17309;BME280;8772;42.804;23.426;2023-01-15T09:29:26;74478.50;;;-140.58;100.00
17309;BME280;8772;42.804;23.426;2023-01-15T09:31:54;74470.28;;;-140.58;100.00
17309;BME280;8772;42.804;23.426;2023-01-15T09:34:21;74433.34;;;-140.58;100.00
17309;BME280;8772;42.804;23.426;2023-01-15T09:36:48;74427.19;;;-140.58;100.00
17309;BME280;8772;42.804;23.426;2023-01-15T09:39:15;74412.84;;;-140.58;100.00
17309;BME280;8772;42.804;23.426;2023-01-15T09:42:00;74396.41;;;-140.58;100.00
17309;BME280;8772;42.804;23.426;2023-01-15T09:44:41;74375.91;;;-140.58;100.00
17309;BME280;8772;42.804;23.426;2023-01-15T09:47:14;74365.66;;;-140.58;100.00
17309;BME280;8772;42.804;23.426;2023-01-15T09:49:55;74375.91;;;-140.58;100.00
17309;BME280;8772;42.804;23.426;2023-01-15T09:52:31;74349.22;;;-140.58;100.00
17309;BME280;8772;42.804;23.426;2023-01-15T09:55:06;74345.13;;;-140.58;100.00
17309;BME280;8772;42.804;23.426;2023-01-15T09:57:36;74312.28;;;-140.58;100.00
17309;BME280;8772;42.804;23.426;2023-01-15T10:00:06;74336.91;;;-140.58;100.00
17309;BME280;8772;42.804;23.426;2023-01-15T10:02:43;74318.44;;;-140.58;100.00
17309;BME280;8772;42.804;23.426;2023-01-15T10:05:16;74318.44;;;-140.58;100.00
17309;BME280;8772;42.804;23.426;2023-01-15T10:07:50;74289.72;;;-140.58;100.00
17309;BME280;8772;42.804;23.426;2023-01-15T10:10:21;74310.25;;;-140.58;100.00
17309;BME280;8772;42.804;23.426;2023-01-15T10:12:53;74334.88;;;-140.58;100.00
17309;BME280;8772;42.804;23.426;2023-01-15T10:15:29;74363.59;;;-140.58;100.00
17309;BME280;8772;42.804;23.426;2023-01-15T10:17:58;74355.38;;;-140.58;100.00
17309;BME280;8772;42.804;23.426;2023-01-15T10:20:42;74359.50;;;-140.58;100.00
17309;BME280;8772;42.804;23.426;2023-01-15T10:23:32;74380.00;;;-140.58;100.00
17309;BME280;8772;42.804;23.426;2023-01-15T10:26:02;74384.13;;;-140.58;100.00
17309;BME280;8772;42.804;23.426;2023-01-15T10:29:00;74367.69;;;-140.58;100.00
17309;BME280;8772;42.804;23.426;2023-01-15T10:31:48;74347.19;;;-140.58;100.00
17309;BME280;8772;42.804;23.426;2023-01-15T10:37:11;74318.44;;;-140.58;100.00
17309;BME280;8772;42.804;23.426;2023-01-15T10:39:46;74308.19;;;-140.58;100.00
17309;BME280;8772;42.804;23.426;2023-01-15T10:42:27;74310.25;;;-140.58;100.00
17309;BME280;8772;42.804;23.426;2023-01-15T10:45:01;74297.94;;;-140.58;100.00
17309;BME280;8772;42.804;23.426;2023-01-15T10:47:33;74308.19;;;-140.58;100.00
17309;BME280;8772;42.804;23.426;2023-01-15T10:50:14;74306.16;;;-140.58;100.00
17309;BME280;8772;42.804;23.426;2023-01-15T10:52:46;74297.94;;;-140.58;100.00
17309;BME280;8772;42.804;23.426;2023-01-15T10:55:20;74287.69;;;-140.58;100.00
17309;BME280;8772;42.804;23.426;2023-01-15T10:57:54;74300.00;;;-140.58;100.00
17309;BME280;8772;42.804;23.426;2023-01-15T11:00:25;74306.16;;;-140.58;100.00
17309;BME280;8772;42.804;23.426;2023-01-15T11:02:59;74302.03;;;-140.58;100.00
17309;BME280;8772;42.804;23.426;2023-01-15T11:05:31;74281.53;;;-140.58;100.00
17309;BME280;8772;42.804;23.426;2023-01-15T11:08:00;74261.00;;;-140.58;100.00
17309;BME280;8772;42.804;23.426;2023-01-15T11:10:28;74275.38;;;-140.58;100.00
17309;BME280;8772;42.804;23.426;2023-01-15T11:12:58;74285.63;;;-140.58;100.00
17309;BME280;8772;42.804;23.426;2023-01-15T11:15:47;74283.56;;;-140.58;100.00
17309;BME280;8772;42.804;23.426;2023-01-15T11:18:35;74267.16;;;-140.58;100.00
17309;BME280;8772;42.804;23.426;2023-01-15T11:21:24;74252.81;;;-140.58;100.00
17309;BME280;8772;42.804;23.426;2023-01-15T11:23:53;74236.38;;;-140.58;100.00
17309;BME280;8772;42.804;23.426;2023-01-15T11:26:23;74213.81;;;-140.58;100.00
17309;BME280;8772;42.804;23.426;2023-01-15T11:28:51;74219.97;;;-140.58;100.00
17309;BME280;8772;42.804;23.426;2023-01-15T11:31:18;74219.97;;;-140.58;100.00
17309;BME280;8772;42.804;23.426;2023-01-15T11:33:57;74213.81;;;-140.58;100.00
17309;BME280;8772;42.804;23.426;2023-01-15T11:36:27;74207.66;;;-140.58;100.00
17309;BME280;8772;42.804;23.426;2023-01-15T11:38:55;74217.91;;;-140.58;100.00
17309;BME280;8772;42.804;23.426;2023-01-15T11:41:25;74199.47;;;-140.58;100.00
17309;BME280;8772;42.804;23.426;2023-01-15T11:44:15;74211.75;;;-140.58;100.00
17309;BME280;8772;42.804;23.426;2023-01-15T11:47:00;74205.59;;;-140.58;100.00
17309;BME280;8772;42.804;23.426;2023-01-15T11:49:49;74185.09;;;-140.58;100.00
17309;BME280;8772;42.804;23.426;2023-01-15T11:52:36;74160.47;;;-140.58;100.00
17309;BME280;8772;42.804;23.426;2023-01-15T11:55:10;74158.41;;;-140.58;100.00
17309;BME280;8772;42.804;23.426;2023-01-15T11:57:38;74166.63;;;-140.58;100.00
17309;BME280;8772;42.804;23.426;2023-01-15T12:00:07;74164.56;;;-140.58;100.00
17309;BME280;8772;42.804;23.426;2023-01-15T12:02:47;74142.00;;;-140.58;100.00
17309;BME280;8772;42.804;23.426;2023-01-15T12:05:18;74125.59;;;-140.58;100.00
17309;BME280;8772;42.804;23.426;2023-01-15T12:07:49;74117.38;;;-140.58;100.00
17309;BME280;8772;42.804;23.426;2023-01-15T12:10:20;74119.44;;;-140.58;100.00
17309;BME280;8772;42.804;23.426;2023-01-15T12:13:17;74080.47;;;-140.58;100.00
17309;BME280;8772;42.804;23.426;2023-01-15T12:15:52;74059.94;;;-140.58;100.00
17309;BME280;8772;42.804;23.426;2023-01-15T12:18:49;74064.03;;;-140.58;100.00
17309;BME280;8772;42.804;23.426;2023-01-15T12:21:36;74051.75;;;-140.58;100.00
17309;BME280;8772;42.804;23.426;2023-01-15T12:24:24;74047.63;;;-140.58;100.00
17309;BME280;8772;42.804;23.426;2023-01-15T12:27:05;74057.91;;;-140.58;100.00
17309;BME280;8772;42.804;23.426;2023-01-15T12:29:40;74080.47;;;-140.58;100.00
17309;BME280;8772;42.804;23.426;2023-01-15T12:32:10;74047.63;;;-140.58;100.00
17309;BME280;8772;42.804;23.426;2023-01-15T12:34:44;74053.78;;;-140.58;100.00
17309;BME280;8772;42.804;23.426;2023-01-15T12:37:18;74043.53;;;-140.58;100.00
17309;BME280;8772;42.804;23.426;2023-01-15T12:39:51;74023.00;;;-140.58;100.00
17309;BME280;8772;42.804;23.426;2023-01-15T12:42:21;74006.59;;;-140.58;100.00
17309;BME280;8772;42.804;23.426;2023-01-15T12:45:09;74029.16;;;-140.58;100.00
17309;BME280;8772;42.804;23.426;2023-01-15T12:47:43;74018.91;;;-140.58;100.00
17309;BME280;8772;42.804;23.426;2023-01-15T12:50:26;74002.50;;;-140.58;100.00
17309;BME280;8772;42.804;23.426;2023-01-15T12:52:59;73973.78;;;-140.58;100.00
17309;BME280;8772;42.804;23.426;2023-01-15T12:55:32;73977.88;;;-140.58;100.00
17309;BME280;8772;42.804;23.426;2023-01-15T12:58:04;73973.78;;;-140.58;100.00
17309;BME280;8772;42.804;23.426;2023-01-15T13:00:40;73986.09;;;-140.58;100.00